sensor_id;sensor_type;location;lat;lon;timestamp;P1;durP1;ratioP1;P2;durP2;ratioP2
75774;SDS011;64505;51.458;7.556;2023-06-05T00:00:30;6.82;;;1.88;;
75774;SDS011;64505;51.458;7.556;2023-06-05T00:02:32;3.70;;;1.40;;
75774;SDS011;64505;51.458;7.556;2023-06-05T00:04:34;4.25;;;1.90;;
75774;SDS011;64505;51.458;7.556;2023-06-05T00:06:37;5.63;;;1.70;;
75774;SDS011;64505;51.458;7.556;2023-06-05T00:08:39;3.55;;;1.80;;
75774;SDS011;64505;51.458;7.556;2023-06-05T00:10:40;5.45;;;1.90;;
75774;SDS011;64505;51.458;7.556;2023-06-05T00:12:45;6.10;;;1.65;;
75774;SDS011;64505;51.458;7.556;2023-06-05T00:14:47;7.93;;;2.60;;
75774;SDS011;64505;51.458;7.556;2023-06-05T00:16:48;5.85;;;1.85;;
75774;SDS011;64505;51.458;7.556;2023-06-05T00:18:53;4.50;;;1.90;;
75774;SDS011;64505;51.458;7.556;2023-06-05T00:20:54;4.40;;;1.80;;
75774;SDS011;64505;51.458;7.556;2023-06-05T00:22:56;5.32;;;1.83;;
75774;SDS011;64505;51.458;7.556;2023-06-05T00:24:58;6.65;;;2.28;;
75774;SDS011;64505;51.458;7.556;2023-06-05T00:27:00;6.53;;;2.28;;
75774;SDS011;64505;51.458;7.556;2023-06-05T00:29:01;5.15;;;2.17;;
75774;SDS011;64505;51.458;7.556;2023-06-05T00:31:03;7.78;;;2.30;;
75774;SDS011;64505;51.458;7.556;2023-06-05T00:33:05;6.65;;;2.40;;
75774;SDS011;64505;51.458;7.556;2023-06-05T00:35:07;8.80;;;2.70;;
75774;SDS011;64505;51.458;7.556;2023-06-05T00:37:09;5.70;;;2.17;;
75774;SDS011;64505;51.458;7.556;2023-06-05T00:39:10;6.38;;;2.00;;
75774;SDS011;64505;51.458;7.556;2023-06-05T00:41:12;6.38;;;2.58;;
75774;SDS011;64505;51.458;7.556;2023-06-05T00:43:14;5.18;;;1.95;;
75774;SDS011;64505;51.458;7.556;2023-06-05T00:45:15;6.53;;;2.15;;
75774;SDS011;64505;51.458;7.556;2023-06-05T00:47:17;5.40;;;2.25;;
75774;SDS011;64505;51.458;7.556;2023-06-05T00:49:19;6.90;;;2.10;;
75774;SDS011;64505;51.458;7.556;2023-06-05T00:51:21;8.07;;;2.33;;
75774;SDS011;64505;51.458;7.556;2023-06-05T00:53:23;5.45;;;2.33;;
75774;SDS011;64505;51.458;7.556;2023-06-05T00:55:26;6.97;;;1.92;;
75774;SDS011;64505;51.458;7.556;2023-06-05T00:57:28;6.10;;;1.90;;
75774;SDS011;64505;51.458;7.556;2023-06-05T00:59:30;6.82;;;2.05;;
75774;SDS011;64505;51.458;7.556;2023-06-05T01:01:33;5.70;;;1.85;;
75774;SDS011;64505;51.458;7.556;2023-06-05T01:03:35;6.90;;;2.25;;
75774;SDS011;64505;51.458;7.556;2023-06-05T01:05:37;4.53;;;2.00;;
75774;SDS011;64505;51.458;7.556;2023-06-05T01:07:39;6.43;;;2.25;;
75774;SDS011;64505;51.458;7.556;2023-06-05T01:09:41;5.07;;;2.00;;
75774;SDS011;64505;51.458;7.556;2023-06-05T01:14:22;5.50;;;1.90;;
75774;SDS011;64505;51.458;7.556;2023-06-05T01:16:25;5.40;;;2.30;;
75774;SDS011;64505;51.458;7.556;2023-06-05T01:18:32;5.07;;;2.75;;
75774;SDS011;64505;51.458;7.556;2023-06-05T01:20:34;8.30;;;2.38;;
75774;SDS011;64505;51.458;7.556;2023-06-05T01:22:37;5.45;;;2.00;;
75774;SDS011;64505;51.458;7.556;2023-06-05T01:24:38;4.97;;;2.08;;
75774;SDS011;64505;51.458;7.556;2023-06-05T01:28:50;5.13;;;2.80;;
75774;SDS011;64505;51.458;7.556;2023-06-05T01:30:54;5.57;;;3.10;;
75774;SDS011;64505;51.458;7.556;2023-06-05T01:33:05;5.28;;;2.72;;
75774;SDS011;64505;51.458;7.556;2023-06-05T01:35:31;7.57;;;2.65;;
75774;SDS011;64505;51.458;7.556;2023-06-05T01:37:51;7.90;;;3.00;;
75774;SDS011;64505;51.458;7.556;2023-06-05T01:40:11;7.07;;;2.85;;
75774;SDS011;64505;51.458;7.556;2023-06-05T01:42:33;6.78;;;2.70;;
75774;SDS011;64505;51.458;7.556;2023-06-05T01:44:52;5.80;;;2.70;;
75774;SDS011;64505;51.458;7.556;2023-06-05T01:47:11;6.78;;;2.50;;
75774;SDS011;64505;51.458;7.556;2023-06-05T01:49:31;5.72;;;2.38;;
75774;SDS011;64505;51.458;7.556;2023-06-05T01:51:33;7.95;;;3.10;;
75774;SDS011;64505;51.458;7.556;2023-06-05T01:53:36;7.45;;;2.80;;
75774;SDS011;64505;51.458;7.556;2023-06-05T01:55:38;9.48;;;3.10;;
75774;SDS011;64505;51.458;7.556;2023-06-05T01:57:42;8.20;;;3.17;;
75774;SDS011;64505;51.458;7.556;2023-06-05T01:59:44;6.40;;;3.20;;
75774;SDS011;64505;51.458;7.556;2023-06-05T02:01:47;6.07;;;2.85;;
75774;SDS011;64505;51.458;7.556;2023-06-05T02:03:49;7.90;;;3.20;;
75774;SDS011;64505;51.458;7.556;2023-06-05T02:05:51;5.85;;;2.90;;
75774;SDS011;64505;51.458;7.556;2023-06-05T02:07:54;8.88;;;2.38;;
75774;SDS011;64505;51.458;7.556;2023-06-05T02:09:59;7.65;;;2.80;;
75774;SDS011;64505;51.458;7.556;2023-06-05T02:12:05;5.80;;;2.58;;
75774;SDS011;64505;51.458;7.556;2023-06-05T02:14:08;6.57;;;3.00;;
75774;SDS011;64505;51.458;7.556;2023-06-05T02:16:16;7.40;;;2.70;;
75774;SDS011;64505;51.458;7.556;2023-06-05T02:18:18;6.03;;;2.95;;
75774;SDS011;64505;51.458;7.556;2023-06-05T02:20:24;8.05;;;3.10;;
75774;SDS011;64505;51.458;7.556;2023-06-05T02:22:26;6.13;;;2.90;;
75774;SDS011;64505;51.458;7.556;2023-06-05T02:24:28;9.40;;;2.88;;
75774;SDS011;64505;51.458;7.556;2023-06-05T02:26:30;7.45;;;2.53;;
75774;SDS011;64505;51.458;7.556;2023-06-05T02:28:32;7.75;;;2.92;;
75774;SDS011;64505;51.458;7.556;2023-06-05T02:30:33;6.85;;;2.78;;
75774;SDS011;64505;51.458;7.556;2023-06-05T02:32:35;7.00;;;3.55;;
75774;SDS011;64505;51.458;7.556;2023-06-05T02:34:37;8.10;;;3.15;;
75774;SDS011;64505;51.458;7.556;2023-06-05T02:36:39;5.88;;;2.97;;
75774;SDS011;64505;51.458;7.556;2023-06-05T02:38:42;9.45;;;3.15;;
75774;SDS011;64505;51.458;7.556;2023-06-05T02:40:44;7.10;;;3.40;;
75774;SDS011;64505;51.458;7.556;2023-06-05T02:42:46;8.45;;;3.03;;
75774;SDS011;64505;51.458;7.556;2023-06-05T02:44:47;6.78;;;2.90;;
75774;SDS011;64505;51.458;7.556;2023-06-05T02:46:50;7.88;;;3.65;;
75774;SDS011;64505;51.458;7.556;2023-06-05T02:48:51;8.55;;;2.50;;
75774;SDS011;64505;51.458;7.556;2023-06-05T02:50:53;7.65;;;3.30;;
75774;SDS011;64505;51.458;7.556;2023-06-05T02:52:54;6.53;;;3.05;;
75774;SDS011;64505;51.458;7.556;2023-06-05T02:54:56;6.88;;;2.42;;
75774;SDS011;64505;51.458;7.556;2023-06-05T02:56:57;5.57;;;2.95;;
75774;SDS011;64505;51.458;7.556;2023-06-05T02:59:01;6.43;;;2.92;;
75774;SDS011;64505;51.458;7.556;2023-06-05T03:01:04;6.57;;;3.10;;
75774;SDS011;64505;51.458;7.556;2023-06-05T03:03:08;5.75;;;3.10;;
75774;SDS011;64505;51.458;7.556;2023-06-05T03:05:10;7.55;;;3.10;;
75774;SDS011;64505;51.458;7.556;2023-06-05T03:07:12;8.50;;;3.33;;
75774;SDS011;64505;51.458;7.556;2023-06-05T03:09:14;7.65;;;3.20;;
75774;SDS011;64505;51.458;7.556;2023-06-05T03:11:15;7.10;;;3.40;;
75774;SDS011;64505;51.458;7.556;2023-06-05T03:13:17;6.70;;;3.53;;
75774;SDS011;64505;51.458;7.556;2023-06-05T03:15:19;7.10;;;3.40;;
75774;SDS011;64505;51.458;7.556;2023-06-05T03:17:20;7.82;;;3.17;;
75774;SDS011;64505;51.458;7.556;2023-06-05T03:19:24;7.90;;;3.20;;
75774;SDS011;64505;51.458;7.556;2023-06-05T03:21:26;11.35;;;3.58;;
75774;SDS011;64505;51.458;7.556;2023-06-05T03:23:28;10.88;;;3.50;;
75774;SDS011;64505;51.458;7.556;2023-06-05T03:25:29;6.85;;;3.47;;
75774;SDS011;64505;51.458;7.556;2023-06-05T03:27:31;6.30;;;3.13;;
75774;SDS011;64505;51.458;7.556;2023-06-05T03:29:33;7.13;;;3.15;;
75774;SDS011;64505;51.458;7.556;2023-06-05T03:31:34;7.05;;;3.22;;
75774;SDS011;64505;51.458;7.556;2023-06-05T03:33:37;6.57;;;3.42;;
75774;SDS011;64505;51.458;7.556;2023-06-05T03:35:39;6.65;;;3.33;;
75774;SDS011;64505;51.458;7.556;2023-06-05T03:37:41;6.57;;;3.75;;
75774;SDS011;64505;51.458;7.556;2023-06-05T03:39:43;7.28;;;3.40;;
75774;SDS011;64505;51.458;7.556;2023-06-05T03:41:44;7.18;;;2.92;;
75774;SDS011;64505;51.458;7.556;2023-06-05T03:43:46;6.45;;;3.30;;
75774;SDS011;64505;51.458;7.556;2023-06-05T03:45:47;7.57;;;3.25;;
75774;SDS011;64505;51.458;7.556;2023-06-05T03:47:50;8.52;;;3.55;;
75774;SDS011;64505;51.458;7.556;2023-06-05T03:49:52;8.25;;;3.55;;
75774;SDS011;64505;51.458;7.556;2023-06-05T03:51:54;8.85;;;4.18;;
75774;SDS011;64505;51.458;7.556;2023-06-05T03:54:02;7.72;;;4.15;;
75774;SDS011;64505;51.458;7.556;2023-06-05T03:56:04;6.18;;;4.10;;
75774;SDS011;64505;51.458;7.556;2023-06-05T03:58:09;6.75;;;3.70;;
75774;SDS011;64505;51.458;7.556;2023-06-05T04:00:14;8.48;;;3.80;;
75774;SDS011;64505;51.458;7.556;2023-06-05T04:02:17;6.97;;;3.80;;
75774;SDS011;64505;51.458;7.556;2023-06-05T04:04:19;7.70;;;3.78;;
75774;SDS011;64505;51.458;7.556;2023-06-05T04:06:22;6.68;;;4.03;;
75774;SDS011;64505;51.458;7.556;2023-06-05T04:08:23;8.68;;;3.83;;
75774;SDS011;64505;51.458;7.556;2023-06-05T04:10:25;10.93;;;3.53;;
75774;SDS011;64505;51.458;7.556;2023-06-05T04:12:27;9.23;;;3.75;;
75774;SDS011;64505;51.458;7.556;2023-06-05T04:14:29;7.70;;;4.32;;
75774;SDS011;64505;51.458;7.556;2023-06-05T04:16:31;9.23;;;4.43;;
75774;SDS011;64505;51.458;7.556;2023-06-05T04:18:35;7.97;;;3.90;;
75774;SDS011;64505;51.458;7.556;2023-06-05T04:20:37;8.25;;;3.88;;
75774;SDS011;64505;51.458;7.556;2023-06-05T04:22:38;8.68;;;4.03;;
75774;SDS011;64505;51.458;7.556;2023-06-05T04:24:40;11.50;;;4.45;;
75774;SDS011;64505;51.458;7.556;2023-06-05T04:26:41;8.88;;;4.10;;
75774;SDS011;64505;51.458;7.556;2023-06-05T04:28:43;6.57;;;3.90;;
75774;SDS011;64505;51.458;7.556;2023-06-05T04:30:45;9.88;;;4.47;;
75774;SDS011;64505;51.458;7.556;2023-06-05T04:32:51;10.02;;;4.10;;
75774;SDS011;64505;51.458;7.556;2023-06-05T04:34:58;8.13;;;4.07;;
75774;SDS011;64505;51.458;7.556;2023-06-05T04:37:00;10.27;;;3.63;;
75774;SDS011;64505;51.458;7.556;2023-06-05T04:39:03;8.85;;;4.38;;
75774;SDS011;64505;51.458;7.556;2023-06-05T04:41:08;9.25;;;4.20;;
75774;SDS011;64505;51.458;7.556;2023-06-05T04:43:12;9.50;;;3.72;;
75774;SDS011;64505;51.458;7.556;2023-06-05T04:45:13;9.02;;;4.07;;
75774;SDS011;64505;51.458;7.556;2023-06-05T04:47:17;7.47;;;4.00;;
75774;SDS011;64505;51.458;7.556;2023-06-05T04:49:19;7.57;;;4.32;;
75774;SDS011;64505;51.458;7.556;2023-06-05T04:51:24;8.15;;;3.80;;
75774;SDS011;64505;51.458;7.556;2023-06-05T04:53:26;8.50;;;4.00;;
75774;SDS011;64505;51.458;7.556;2023-06-05T04:55:32;7.57;;;3.85;;
75774;SDS011;64505;51.458;7.556;2023-06-05T04:57:34;8.57;;;4.15;;
75774;SDS011;64505;51.458;7.556;2023-06-05T04:59:36;7.60;;;4.03;;
75774;SDS011;64505;51.458;7.556;2023-06-05T05:01:38;7.70;;;3.97;;
75774;SDS011;64505;51.458;7.556;2023-06-05T05:03:41;7.43;;;3.88;;
75774;SDS011;64505;51.458;7.556;2023-06-05T05:05:44;9.68;;;4.22;;
75774;SDS011;64505;51.458;7.556;2023-06-05T05:07:45;8.43;;;3.88;;
75774;SDS011;64505;51.458;7.556;2023-06-05T05:09:47;9.98;;;4.15;;
75774;SDS011;64505;51.458;7.556;2023-06-05T05:11:50;7.15;;;3.97;;
75774;SDS011;64505;51.458;7.556;2023-06-05T05:13:51;8.15;;;3.90;;
75774;SDS011;64505;51.458;7.556;2023-06-05T05:15:53;9.75;;;4.43;;
75774;SDS011;64505;51.458;7.556;2023-06-05T05:17:55;9.05;;;3.92;;
75774;SDS011;64505;51.458;7.556;2023-06-05T05:19:58;7.07;;;3.80;;
75774;SDS011;64505;51.458;7.556;2023-06-05T05:21:59;7.72;;;4.45;;
75774;SDS011;64505;51.458;7.556;2023-06-05T05:24:01;9.43;;;4.20;;
75774;SDS011;64505;51.458;7.556;2023-06-05T05:26:03;8.90;;;4.38;;
75774;SDS011;64505;51.458;7.556;2023-06-05T05:28:06;9.57;;;4.18;;
75774;SDS011;64505;51.458;7.556;2023-06-05T05:30:08;7.53;;;4.20;;
75774;SDS011;64505;51.458;7.556;2023-06-05T05:32:10;7.30;;;4.47;;
75774;SDS011;64505;51.458;7.556;2023-06-05T05:34:12;8.85;;;4.60;;
75774;SDS011;64505;51.458;7.556;2023-06-05T05:36:14;9.38;;;4.25;;
75774;SDS011;64505;51.458;7.556;2023-06-05T05:38:16;7.72;;;3.72;;
75774;SDS011;64505;51.458;7.556;2023-06-05T05:40:17;9.20;;;4.28;;
75774;SDS011;64505;51.458;7.556;2023-06-05T05:42:19;9.85;;;4.53;;
75774;SDS011;64505;51.458;7.556;2023-06-05T05:44:21;11.13;;;4.78;;
75774;SDS011;64505;51.458;7.556;2023-06-05T05:46:23;7.13;;;4.15;;
75774;SDS011;64505;51.458;7.556;2023-06-05T05:48:27;9.55;;;4.60;;
75774;SDS011;64505;51.458;7.556;2023-06-05T05:50:29;8.40;;;3.88;;
75774;SDS011;64505;51.458;7.556;2023-06-05T05:52:30;6.15;;;3.40;;
75774;SDS011;64505;51.458;7.556;2023-06-05T05:54:32;11.90;;;5.18;;
75774;SDS011;64505;51.458;7.556;2023-06-05T05:56:34;11.27;;;5.03;;
75774;SDS011;64505;51.458;7.556;2023-06-05T05:58:37;9.95;;;4.10;;
75774;SDS011;64505;51.458;7.556;2023-06-05T06:00:39;11.68;;;4.28;;
75774;SDS011;64505;51.458;7.556;2023-06-05T06:02:40;7.00;;;3.70;;
75774;SDS011;64505;51.458;7.556;2023-06-05T06:04:43;9.77;;;4.50;;
75774;SDS011;64505;51.458;7.556;2023-06-05T06:06:45;9.07;;;4.70;;
75774;SDS011;64505;51.458;7.556;2023-06-05T06:08:49;9.50;;;4.53;;
75774;SDS011;64505;51.458;7.556;2023-06-05T06:10:50;10.02;;;4.60;;
75774;SDS011;64505;51.458;7.556;2023-06-05T06:12:52;8.05;;;3.75;;
75774;SDS011;64505;51.458;7.556;2023-06-05T06:14:54;8.45;;;4.25;;
75774;SDS011;64505;51.458;7.556;2023-06-05T06:16:56;7.32;;;4.65;;
75774;SDS011;64505;51.458;7.556;2023-06-05T06:18:59;7.25;;;3.90;;
75774;SDS011;64505;51.458;7.556;2023-06-05T06:21:01;6.70;;;3.55;;
75774;SDS011;64505;51.458;7.556;2023-06-05T06:23:03;10.82;;;4.10;;
75774;SDS011;64505;51.458;7.556;2023-06-05T06:25:06;8.93;;;4.80;;
75774;SDS011;64505;51.458;7.556;2023-06-05T06:27:09;7.43;;;4.40;;
75774;SDS011;64505;51.458;7.556;2023-06-05T06:29:31;7.95;;;4.45;;
75774;SDS011;64505;51.458;7.556;2023-06-05T06:31:33;9.10;;;4.78;;
75774;SDS011;64505;51.458;7.556;2023-06-05T06:33:35;6.47;;;4.20;;
75774;SDS011;64505;51.458;7.556;2023-06-05T06:35:37;9.45;;;4.30;;
75774;SDS011;64505;51.458;7.556;2023-06-05T06:37:40;10.20;;;4.65;;
75774;SDS011;64505;51.458;7.556;2023-06-05T06:39:42;7.10;;;3.88;;
75774;SDS011;64505;51.458;7.556;2023-06-05T06:41:44;8.52;;;4.53;;
75774;SDS011;64505;51.458;7.556;2023-06-05T06:43:46;9.13;;;5.00;;
75774;SDS011;64505;51.458;7.556;2023-06-05T06:45:50;8.38;;;4.63;;
75774;SDS011;64505;51.458;7.556;2023-06-05T06:47:54;8.95;;;4.20;;
75774;SDS011;64505;51.458;7.556;2023-06-05T06:50:08;7.47;;;4.20;;
75774;SDS011;64505;51.458;7.556;2023-06-05T06:52:10;7.38;;;4.20;;
75774;SDS011;64505;51.458;7.556;2023-06-05T06:54:12;7.32;;;3.95;;
75774;SDS011;64505;51.458;7.556;2023-06-05T06:56:14;8.60;;;3.78;;
75774;SDS011;64505;51.458;7.556;2023-06-05T06:58:17;9.77;;;4.40;;
75774;SDS011;64505;51.458;7.556;2023-06-05T07:00:19;10.05;;;4.07;;
75774;SDS011;64505;51.458;7.556;2023-06-05T07:02:22;6.43;;;3.58;;
75774;SDS011;64505;51.458;7.556;2023-06-05T07:04:26;7.95;;;3.80;;
75774;SDS011;64505;51.458;7.556;2023-06-05T07:06:28;7.85;;;3.53;;
75774;SDS011;64505;51.458;7.556;2023-06-05T07:08:29;7.18;;;3.45;;
75774;SDS011;64505;51.458;7.556;2023-06-05T07:10:31;5.88;;;3.35;;
75774;SDS011;64505;51.458;7.556;2023-06-05T07:12:33;7.15;;;3.58;;
75774;SDS011;64505;51.458;7.556;2023-06-05T07:14:34;8.18;;;4.20;;
75774;SDS011;64505;51.458;7.556;2023-06-05T07:16:36;8.00;;;4.55;;
75774;SDS011;64505;51.458;7.556;2023-06-05T07:18:39;7.60;;;4.03;;
75774;SDS011;64505;51.458;7.556;2023-06-05T07:20:41;8.07;;;4.20;;
75774;SDS011;64505;51.458;7.556;2023-06-05T07:22:43;9.50;;;4.20;;
75774;SDS011;64505;51.458;7.556;2023-06-05T07:24:47;8.32;;;3.70;;
75774;SDS011;64505;51.458;7.556;2023-06-05T07:26:53;9.23;;;4.25;;
75774;SDS011;64505;51.458;7.556;2023-06-05T07:28:56;8.95;;;4.45;;
75774;SDS011;64505;51.458;7.556;2023-06-05T07:30:58;8.23;;;3.70;;
75774;SDS011;64505;51.458;7.556;2023-06-05T07:33:05;9.32;;;3.53;;
75774;SDS011;64505;51.458;7.556;2023-06-05T07:35:13;6.85;;;3.50;;
75774;SDS011;64505;51.458;7.556;2023-06-05T07:37:15;8.80;;;3.80;;
75774;SDS011;64505;51.458;7.556;2023-06-05T07:39:18;8.48;;;3.25;;
75774;SDS011;64505;51.458;7.556;2023-06-05T07:41:21;9.05;;;4.22;;
75774;SDS011;64505;51.458;7.556;2023-06-05T07:43:26;8.82;;;3.38;;
75774;SDS011;64505;51.458;7.556;2023-06-05T07:45:28;7.72;;;3.63;;
75774;SDS011;64505;51.458;7.556;2023-06-05T07:47:30;8.20;;;3.70;;
75774;SDS011;64505;51.458;7.556;2023-06-05T07:49:32;6.97;;;3.22;;
75774;SDS011;64505;51.458;7.556;2023-06-05T07:51:34;8.38;;;4.22;;
75774;SDS011;64505;51.458;7.556;2023-06-05T07:53:38;7.57;;;3.53;;
75774;SDS011;64505;51.458;7.556;2023-06-05T07:55:39;7.97;;;4.10;;
75774;SDS011;64505;51.458;7.556;2023-06-05T07:57:41;8.23;;;3.65;;
75774;SDS011;64505;51.458;7.556;2023-06-05T07:59:43;8.07;;;3.72;;
75774;SDS011;64505;51.458;7.556;2023-06-05T08:01:44;8.55;;;4.13;;
75774;SDS011;64505;51.458;7.556;2023-06-05T08:03:46;7.20;;;3.58;;
75774;SDS011;64505;51.458;7.556;2023-06-05T08:05:48;7.53;;;3.80;;
75774;SDS011;64505;51.458;7.556;2023-06-05T08:07:51;11.57;;;3.70;;
75774;SDS011;64505;51.458;7.556;2023-06-05T08:09:53;6.75;;;3.35;;
75774;SDS011;64505;51.458;7.556;2023-06-05T08:11:54;12.77;;;4.22;;
75774;SDS011;64505;51.458;7.556;2023-06-05T08:13:57;9.13;;;4.13;;
75774;SDS011;64505;51.458;7.556;2023-06-05T08:15:58;8.15;;;3.40;;
75774;SDS011;64505;51.458;7.556;2023-06-05T08:18:00;8.77;;;3.97;;
75774;SDS011;64505;51.458;7.556;2023-06-05T08:20:02;9.48;;;3.97;;
75774;SDS011;64505;51.458;7.556;2023-06-05T08:22:06;10.98;;;3.63;;
75774;SDS011;64505;51.458;7.556;2023-06-05T08:24:08;8.82;;;3.30;;
75774;SDS011;64505;51.458;7.556;2023-06-05T08:26:10;12.50;;;3.58;;
75774;SDS011;64505;51.458;7.556;2023-06-05T08:28:12;8.07;;;3.10;;
75774;SDS011;64505;51.458;7.556;2023-06-05T08:30:14;7.40;;;3.33;;
75774;SDS011;64505;51.458;7.556;2023-06-05T08:32:15;8.32;;;3.22;;
75774;SDS011;64505;51.458;7.556;2023-06-05T08:34:20;7.72;;;3.20;;
75774;SDS011;64505;51.458;7.556;2023-06-05T08:36:22;8.40;;;3.15;;
75774;SDS011;64505;51.458;7.556;2023-06-05T08:38:25;5.53;;;2.92;;
75774;SDS011;64505;51.458;7.556;2023-06-05T08:40:27;8.38;;;2.90;;
75774;SDS011;64505;51.458;7.556;2023-06-05T08:42:29;7.13;;;3.08;;
75774;SDS011;64505;51.458;7.556;2023-06-05T08:44:31;10.68;;;3.28;;
75774;SDS011;64505;51.458;7.556;2023-06-05T08:46:34;8.55;;;3.50;;
75774;SDS011;64505;51.458;7.556;2023-06-05T08:48:41;8.10;;;2.90;;
75774;SDS011;64505;51.458;7.556;2023-06-05T08:50:44;8.23;;;3.33;;
75774;SDS011;64505;51.458;7.556;2023-06-05T08:52:45;7.47;;;3.08;;
75774;SDS011;64505;51.458;7.556;2023-06-05T08:54:49;7.47;;;3.28;;
75774;SDS011;64505;51.458;7.556;2023-06-05T08:56:51;11.05;;;3.75;;
75774;SDS011;64505;51.458;7.556;2023-06-05T08:58:54;9.82;;;3.63;;
75774;SDS011;64505;51.458;7.556;2023-06-05T09:00:56;9.98;;;3.85;;
75774;SDS011;64505;51.458;7.556;2023-06-05T09:02:58;9.65;;;3.38;;
75774;SDS011;64505;51.458;7.556;2023-06-05T09:05:00;6.53;;;3.10;;
75774;SDS011;64505;51.458;7.556;2023-06-05T09:07:02;7.75;;;3.05;;
75774;SDS011;64505;51.458;7.556;2023-06-05T09:09:05;8.90;;;3.30;;
75774;SDS011;64505;51.458;7.556;2023-06-05T09:13:46;9.27;;;3.45;;
75774;SDS011;64505;51.458;7.556;2023-06-05T09:15:49;6.50;;;2.85;;
75774;SDS011;64505;51.458;7.556;2023-06-05T09:18:01;6.55;;;3.05;;
75774;SDS011;64505;51.458;7.556;2023-06-05T09:20:22;8.27;;;3.40;;
75774;SDS011;64505;51.458;7.556;2023-06-05T09:22:34;6.95;;;2.72;;
75774;SDS011;64505;51.458;7.556;2023-06-05T09:24:38;12.82;;;3.25;;
75774;SDS011;64505;51.458;7.556;2023-06-05T09:28:53;6.88;;;3.10;;
75774;SDS011;64505;51.458;7.556;2023-06-05T09:30:56;6.03;;;2.80;;
75774;SDS011;64505;51.458;7.556;2023-06-05T09:33:08;7.18;;;3.35;;
75774;SDS011;64505;51.458;7.556;2023-06-05T09:35:15;8.30;;;3.58;;
75774;SDS011;64505;51.458;7.556;2023-06-05T09:37:17;7.07;;;2.92;;
75774;SDS011;64505;51.458;7.556;2023-06-05T09:39:19;7.10;;;3.22;;
75774;SDS011;64505;51.458;7.556;2023-06-05T09:41:21;7.38;;;2.88;;
75774;SDS011;64505;51.458;7.556;2023-06-05T09:43:22;9.25;;;2.95;;
75774;SDS011;64505;51.458;7.556;2023-06-05T09:45:40;7.95;;;2.88;;
75774;SDS011;64505;51.458;7.556;2023-06-05T09:47:43;7.40;;;3.40;;
75774;SDS011;64505;51.458;7.556;2023-06-05T09:49:54;9.82;;;3.20;;
75774;SDS011;64505;51.458;7.556;2023-06-05T09:51:59;8.93;;;3.42;;
75774;SDS011;64505;51.458;7.556;2023-06-05T09:54:02;6.13;;;3.17;;
75774;SDS011;64505;51.458;7.556;2023-06-05T09:56:05;8.82;;;3.33;;
75774;SDS011;64505;51.458;7.556;2023-06-05T09:58:07;5.25;;;2.72;;
75774;SDS011;64505;51.458;7.556;2023-06-05T10:00:15;7.32;;;2.92;;
75774;SDS011;64505;51.458;7.556;2023-06-05T10:02:20;8.32;;;3.33;;
75774;SDS011;64505;51.458;7.556;2023-06-05T10:04:26;8.77;;;3.03;;
75774;SDS011;64505;51.458;7.556;2023-06-05T10:06:29;7.20;;;3.20;;
75774;SDS011;64505;51.458;7.556;2023-06-05T10:08:34;5.43;;;2.75;;
75774;SDS011;64505;51.458;7.556;2023-06-05T10:10:37;12.57;;;3.65;;
75774;SDS011;64505;51.458;7.556;2023-06-05T10:12:39;7.90;;;2.75;;
75774;SDS011;64505;51.458;7.556;2023-06-05T10:14:42;6.57;;;2.40;;
75774;SDS011;64505;51.458;7.556;2023-06-05T10:16:45;6.88;;;2.35;;
75774;SDS011;64505;51.458;7.556;2023-06-05T10:18:52;8.73;;;3.10;;
75774;SDS011;64505;51.458;7.556;2023-06-05T10:20:55;8.13;;;2.70;;
75774;SDS011;64505;51.458;7.556;2023-06-05T10:22:57;7.07;;;3.40;;
75774;SDS011;64505;51.458;7.556;2023-06-05T10:25:00;7.18;;;2.70;;
75774;SDS011;64505;51.458;7.556;2023-06-05T10:31:30;8.05;;;3.20;;
75774;SDS011;64505;51.458;7.556;2023-06-05T10:38:18;9.65;;;3.20;;
75774;SDS011;64505;51.458;7.556;2023-06-05T10:40:23;7.90;;;2.78;;
75774;SDS011;64505;51.458;7.556;2023-06-05T10:42:26;6.15;;;2.88;;
75774;SDS011;64505;51.458;7.556;2023-06-05T10:44:39;7.88;;;2.75;;
75774;SDS011;64505;51.458;7.556;2023-06-05T10:46:47;7.22;;;2.83;;
75774;SDS011;64505;51.458;7.556;2023-06-05T10:51:31;8.32;;;3.20;;
75774;SDS011;64505;51.458;7.556;2023-06-05T10:53:44;6.68;;;2.88;;
75774;SDS011;64505;51.458;7.556;2023-06-05T10:55:48;6.00;;;2.38;;
75774;SDS011;64505;51.458;7.556;2023-06-05T11:00:11;8.35;;;2.70;;
75774;SDS011;64505;51.458;7.556;2023-06-05T11:04:14;6.57;;;2.40;;
75774;SDS011;64505;51.458;7.556;2023-06-05T11:06:18;9.27;;;2.67;;
75774;SDS011;64505;51.458;7.556;2023-06-05T11:08:20;6.07;;;2.58;;
75774;SDS011;64505;51.458;7.556;2023-06-05T11:10:22;6.00;;;2.90;;
75774;SDS011;64505;51.458;7.556;2023-06-05T11:12:23;5.80;;;2.40;;
75774;SDS011;64505;51.458;7.556;2023-06-05T11:16:56;6.18;;;2.83;;
75774;SDS011;64505;51.458;7.556;2023-06-05T11:21:28;6.45;;;2.33;;
75774;SDS011;64505;51.458;7.556;2023-06-05T11:24:13;5.72;;;2.70;;
75774;SDS011;64505;51.458;7.556;2023-06-05T11:28:43;8.48;;;2.40;;
75774;SDS011;64505;51.458;7.556;2023-06-05T11:30:45;7.60;;;2.63;;
75774;SDS011;64505;51.458;7.556;2023-06-05T11:32:50;7.07;;;2.75;;
75774;SDS011;64505;51.458;7.556;2023-06-05T11:34:59;5.88;;;2.40;;
75774;SDS011;64505;51.458;7.556;2023-06-05T11:37:36;6.25;;;2.80;;
75774;SDS011;64505;51.458;7.556;2023-06-05T11:39:42;6.50;;;2.42;;
75774;SDS011;64505;51.458;7.556;2023-06-05T11:41:47;8.75;;;2.10;;
75774;SDS011;64505;51.458;7.556;2023-06-05T11:43:51;5.78;;;2.13;;
75774;SDS011;64505;51.458;7.556;2023-06-05T11:45:54;4.85;;;1.92;;
75774;SDS011;64505;51.458;7.556;2023-06-05T11:48:07;5.78;;;1.90;;
75774;SDS011;64505;51.458;7.556;2023-06-05T11:50:11;4.18;;;1.88;;
75774;SDS011;64505;51.458;7.556;2023-06-05T11:52:18;7.32;;;2.00;;
75774;SDS011;64505;51.458;7.556;2023-06-05T11:54:25;4.93;;;2.05;;
75774;SDS011;64505;51.458;7.556;2023-06-05T11:56:27;4.85;;;2.10;;
75774;SDS011;64505;51.458;7.556;2023-06-05T11:58:31;4.28;;;1.48;;
75774;SDS011;64505;51.458;7.556;2023-06-05T12:00:40;4.88;;;1.70;;
75774;SDS011;64505;51.458;7.556;2023-06-05T12:02:42;4.43;;;1.98;;
75774;SDS011;64505;51.458;7.556;2023-06-05T12:04:44;4.55;;;1.63;;
75774;SDS011;64505;51.458;7.556;2023-06-05T12:06:46;4.90;;;1.75;;
75774;SDS011;64505;51.458;7.556;2023-06-05T12:08:49;5.72;;;1.98;;
75774;SDS011;64505;51.458;7.556;2023-06-05T12:10:54;4.22;;;2.00;;
75774;SDS011;64505;51.458;7.556;2023-06-05T12:12:57;6.75;;;2.08;;
75774;SDS011;64505;51.458;7.556;2023-06-05T12:17:16;4.45;;;1.73;;
75774;SDS011;64505;51.458;7.556;2023-06-05T12:19:17;4.28;;;1.85;;
75774;SDS011;64505;51.458;7.556;2023-06-05T12:21:20;4.72;;;1.98;;
75774;SDS011;64505;51.458;7.556;2023-06-05T12:23:24;3.92;;;1.92;;
75774;SDS011;64505;51.458;7.556;2023-06-05T12:25:25;4.55;;;1.83;;
75774;SDS011;64505;51.458;7.556;2023-06-05T12:27:30;3.60;;;1.70;;
75774;SDS011;64505;51.458;7.556;2023-06-05T12:29:34;5.05;;;1.95;;
75774;SDS011;64505;51.458;7.556;2023-06-05T12:31:39;5.15;;;1.90;;
75774;SDS011;64505;51.458;7.556;2023-06-05T12:33:47;6.47;;;2.30;;
75774;SDS011;64505;51.458;7.556;2023-06-05T12:36:05;4.75;;;1.60;;
75774;SDS011;64505;51.458;7.556;2023-06-05T12:38:08;4.55;;;1.80;;
75774;SDS011;64505;51.458;7.556;2023-06-05T12:40:10;6.93;;;1.70;;
75774;SDS011;64505;51.458;7.556;2023-06-05T12:42:13;5.32;;;1.90;;
75774;SDS011;64505;51.458;7.556;2023-06-05T12:44:14;4.85;;;1.52;;
75774;SDS011;64505;51.458;7.556;2023-06-05T12:46:16;3.67;;;1.70;;
75774;SDS011;64505;51.458;7.556;2023-06-05T12:48:18;4.10;;;1.75;;
75774;SDS011;64505;51.458;7.556;2023-06-05T12:50:20;4.82;;;1.77;;
75774;SDS011;64505;51.458;7.556;2023-06-05T12:52:22;5.55;;;1.88;;
75774;SDS011;64505;51.458;7.556;2023-06-05T12:54:27;3.92;;;1.75;;
75774;SDS011;64505;51.458;7.556;2023-06-05T12:56:29;9.88;;;2.55;;
75774;SDS011;64505;51.458;7.556;2023-06-05T12:58:32;5.82;;;1.95;;
75774;SDS011;64505;51.458;7.556;2023-06-05T13:00:33;3.30;;;1.70;;